Terminal Aerodrome Forecast
Issued by NWS

Home | Current Version | Previous Version | Text Only | Print | Product List | Glossary On
Versions: 1 2 3 4 5 6 7 8 9 10 11 12 13
000
FTUS44 KSJT 121100
TAFBBD
TAF
KBBD 121128Z 1212/1312 14008KT P6SM FEW150
     FM121500 15011G19KT P6SM FEW080
     FM130100 14007KT P6SM FEW200=

USA.gov is the U.S. government's official web portal to all federal, state and local government web resources and services.